Time;durP1;ratioP1;P1;durP2;ratioP2;P2;SDS_P1;SDS_P2;PMS_P1;PMS_P2;Temp;Humidity;BMP_temperature;BMP_pressure;BME280_temperature;BME280_humidity;BME280_pressure;Samples;Min_cycle;Max_cycle;Signal;HPM_P1;HPM_P2
2023/12/15 00:01:09;;;;;;;921.30;851.00;;;5.40;99.90;;;;;;4988817;28;20105;-76
2023/12/15 00:03:34;;;;;;;961.50;886.97;;;5.40;99.90;;;;;;4992988;28;20530;-76
2023/12/15 00:06:02;;;;;;;911.77;844.60;;;5.40;99.90;;;;;;5004810;28;20038;-76
2023/12/15 00:08:28;;;;;;;867.20;802.38;;;5.40;99.90;;;;;;5005660;28;20046;-75
2023/12/15 00:10:53;;;;;;;897.07;832.53;;;5.40;99.90;;;;;;4992960;28;20034;-76
2023/12/15 00:13:19;;;;;;;862.50;801.27;;;5.40;99.90;;;;;;5005525;28;20037;-76
2023/12/15 00:15:45;;;;;;;843.40;783.07;;;5.40;99.90;;;;;;5004109;28;20126;-76
2023/12/15 00:18:10;;;;;;;831.17;773.13;;;5.50;99.90;;;;;;5008350;28;20038;-76
2023/12/15 00:20:36;;;;;;;841.97;782.23;;;5.50;99.90;;;;;;4993117;28;20041;-76
2023/12/15 00:23:02;;;;;;;841.93;781.87;;;5.50;99.90;;;;;;4983875;28;20107;-76
2023/12/15 00:25:27;;;;;;;878.40;817.20;;;5.50;99.90;;;;;;5004965;28;20050;-76
2023/12/15 00:27:53;;;;;;;859.47;800.03;;;5.50;99.90;;;;;;4993030;28;20467;-76
2023/12/15 00:30:19;;;;;;;919.87;851.50;;;5.50;99.90;;;;;;4991774;28;20432;-76
2023/12/15 00:32:44;;;;;;;882.53;819.27;;;5.50;99.90;;;;;;5004976;28;20050;-76
2023/12/15 00:35:10;;;;;;;868.83;806.90;;;5.50;99.90;;;;;;5009937;28;20045;-77
2023/12/15 00:37:36;;;;;;;894.83;831.10;;;5.50;99.90;;;;;;5012505;28;20038;-74
2023/12/15 00:40:02;;;;;;;909.07;844.40;;;5.50;99.90;;;;;;5012099;28;20073;-75
2023/12/15 00:42:27;;;;;;;765.37;715.03;;;5.40;99.90;;;;;;4988311;28;20152;-75
2023/12/15 00:44:55;;;;;;;849.17;788.47;;;5.40;99.90;;;;;;5011491;28;20034;-75
2023/12/15 00:47:21;;;;;;;879.53;817.10;;;5.40;99.90;;;;;;5012978;28;20088;-76
2023/12/15 00:49:46;;;;;;;944.47;872.53;;;5.40;99.90;;;;;;5013649;28;20069;-76
2023/12/15 00:52:12;;;;;;;759.70;710.40;;;5.30;99.90;;;;;;5011938;28;20049;-76
2023/12/15 00:54:38;;;;;;;885.17;820.30;;;5.20;99.90;;;;;;5016807;28;21030;-76
2023/12/15 00:57:03;;;;;;;870.13;809.07;;;5.20;99.90;;;;;;4997003;28;20044;-76
2023/12/15 00:59:29;;;;;;;787.93;735.33;;;5.20;99.90;;;;;;5013589;28;20479;-77
2023/12/15 01:01:55;;;;;;;836.30;779.47;;;5.10;99.90;;;;;;4996566;28;20041;-76
2023/12/15 01:04:20;;;;;;;772.60;722.27;;;5.00;99.90;;;;;;4996946;28;20406;-76
2023/12/15 01:06:46;;;;;;;848.93;790.37;;;4.90;99.90;;;;;;4996036;28;20065;-76
2023/12/15 01:09:12;;;;;;;780.43;727.13;;;4.90;99.90;;;;;;5013335;28;20544;-76
2023/12/15 01:11:38;;;;;;;768.77;718.97;;;4.90;99.90;;;;;;5010240;28;20045;-76
2023/12/15 01:14:03;;;;;;;751.03;703.17;;;4.90;99.90;;;;;;4993524;28;20088;-76
2023/12/15 01:16:29;;;;;;;828.47;773.13;;;4.90;99.90;;;;;;5010986;28;20069;-76
2023/12/15 01:18:55;;;;;;;807.17;752.43;;;4.90;99.90;;;;;;4993353;28;20038;-75
2023/12/15 01:21:20;;;;;;;810.20;755.53;;;4.90;99.90;;;;;;4995186;28;20402;-74
2023/12/15 01:23:46;;;;;;;823.50;766.40;;;4.80;99.90;;;;;;4996387;28;20042;-76
2023/12/15 01:26:12;;;;;;;815.33;760.10;;;4.80;99.90;;;;;;5007972;28;20093;-75
2023/12/15 01:28:38;;;;;;;864.53;803.13;;;4.80;99.90;;;;;;4993600;28;20042;-75
2023/12/15 01:31:04;;;;;;;843.67;783.53;;;4.70;99.90;;;;;;4996441;28;20490;-75
2023/12/15 01:33:29;;;;;;;863.85;802.83;;;4.70;99.90;;;;;;5006633;28;20506;-75
2023/12/15 01:35:55;;;;;;;740.97;693.80;;;4.70;99.90;;;;;;5011229;28;20042;-75
2023/12/15 01:38:21;;;;;;;809.65;751.75;;;4.70;99.90;;;;;;5011646;28;20113;-75
2023/12/15 01:40:47;;;;;;;832.40;777.27;;;4.70;99.90;;;;;;4997212;28;20126;-74
2023/12/15 01:43:13;;;;;;;803.13;748.43;;;4.70;99.90;;;;;;5012425;28;20038;-75
2023/12/15 01:45:39;;;;;;;846.97;785.93;;;4.60;99.90;;;;;;5010420;28;20115;-75
2023/12/15 01:48:06;;;;;;;853.67;790.77;;;4.60;99.90;;;;;;5012137;28;20046;-75
2023/12/15 01:50:31;;;;;;;854.53;794.15;;;4.60;99.90;;;;;;5012803;28;20041;-76
2023/12/15 01:52:57;;;;;;;756.40;706.97;;;4.50;99.90;;;;;;4994620;28;20052;-76
2023/12/15 01:55:22;;;;;;;762.03;711.97;;;4.50;99.90;;;;;;4995732;28;20038;-76
2023/12/15 01:57:48;;;;;;;907.47;839.43;;;4.50;99.90;;;;;;4995661;28;20394;-76
2023/12/15 02:00:14;;;;;;;842.53;782.73;;;4.60;99.90;;;;;;4995817;28;20083;-75
2023/12/15 02:02:40;;;;;;;824.07;767.43;;;4.60;99.90;;;;;;5011322;28;20045;-76
2023/12/15 02:05:06;;;;;;;781.93;729.70;;;4.60;99.90;;;;;;5008568;28;20405;-76
2023/12/15 02:07:31;;;;;;;836.45;778.45;;;4.60;99.90;;;;;;4994410;28;20045;-76
2023/12/15 02:09:58;;;;;;;823.53;767.63;;;4.70;99.90;;;;;;4993666;28;20414;-76
2023/12/15 02:12:24;;;;;;;856.03;795.45;;;4.70;99.90;;;;;;5006916;28;20057;-76
2023/12/15 02:14:50;;;;;;;809.95;753.53;;;4.70;99.90;;;;;;4992154;28;20035;-76
2023/12/15 02:17:16;;;;;;;884.60;820.87;;;4.70;99.90;;;;;;5015163;28;20037;-76
2023/12/15 02:19:42;;;;;;;844.37;784.30;;;4.80;99.90;;;;;;5009744;28;20038;-76
2023/12/15 02:22:08;;;;;;;859.70;800.83;;;4.80;99.90;;;;;;5011563;28;20116;-76
2023/12/15 02:24:34;;;;;;;877.08;814.58;;;4.70;99.90;;;;;;5009292;28;20041;-76
2023/12/15 02:26:59;;;;;;;820.57;765.40;;;4.70;99.90;;;;;;4995823;28;20464;-75
2023/12/15 02:29:26;;;;;;;875.40;812.70;;;4.70;99.90;;;;;;5009690;28;20042;-75
2023/12/15 02:31:53;;;;;;;863.22;802.80;;;4.70;99.90;;;;;;5007331;28;20085;-75
2023/12/15 02:34:19;;;;;;;899.65;834.55;;;4.70;99.90;;;;;;4992287;28;20045;-76
2023/12/15 02:36:45;;;;;;;949.63;877.93;;;4.70;99.90;;;;;;4988355;28;20034;-76
2023/12/15 02:39:10;;;;;;;846.47;787.47;;;4.80;99.90;;;;;;4994960;28;20073;-75
2023/12/15 02:41:36;;;;;;;818.33;761.97;;;4.70;99.90;;;;;;5009163;28;20036;-76
2023/12/15 02:44:02;;;;;;;847.20;787.63;;;4.70;99.90;;;;;;4988122;28;20406;-75
2023/12/15 02:46:27;;;;;;;814.90;759.10;;;4.70;99.90;;;;;;5008132;28;20049;-75
2023/12/15 02:48:53;;;;;;;773.60;722.43;;;4.60;99.90;;;;;;5010680;28;20383;-75
2023/12/15 02:51:29;;;;;;;775.60;725.70;;;4.60;99.90;;;;;;5009136;28;20057;-76
2023/12/15 02:53:58;;;;;;;734.38;687.72;;;4.50;99.90;;;;;;4991599;28;20137;-75
2023/12/15 02:56:25;;;;;;;808.70;755.40;;;4.50;99.90;;;;;;5010233;28;20057;-75
2023/12/15 02:58:50;;;;;;;764.90;715.67;;;4.50;99.90;;;;;;5006882;28;20038;-75
2023/12/15 03:01:16;;;;;;;771.00;720.97;;;4.40;99.90;;;;;;5007973;28;20086;-76
2023/12/15 03:03:42;;;;;;;825.43;768.20;;;4.40;99.90;;;;;;5010325;28;20129;-76
2023/12/15 03:06:08;;;;;;;800.67;747.53;;;4.40;99.90;;;;;;5011488;28;20038;-75
2023/12/15 03:08:34;;;;;;;789.87;738.37;;;4.40;99.90;;;;;;5010743;28;20281;-76
2023/12/15 03:11:00;;;;;;;793.70;742.40;;;4.40;99.90;;;;;;5010492;28;20087;-75
2023/12/15 03:13:26;;;;;;;775.20;724.03;;;4.40;99.90;;;;;;5005075;28;20046;-76
2023/12/15 03:15:52;;;;;;;868.95;806.58;;;4.40;99.90;;;;;;4994480;28;20042;-76
2023/12/15 03:18:18;;;;;;;826.00;769.63;;;4.30;99.90;;;;;;5008893;28;20092;-75
2023/12/15 03:20:46;;;;;;;784.37;733.23;;;4.40;99.90;;;;;;4994276;28;20280;-76
2023/12/15 03:23:12;;;;;;;790.50;739.08;;;4.30;99.90;;;;;;5011039;28;20479;-76
2023/12/15 03:25:38;;;;;;;824.93;767.90;;;4.30;99.90;;;;;;4988236;28;20121;-75
2023/12/15 03:28:03;;;;;;;807.47;752.23;;;4.30;99.90;;;;;;5010256;28;20117;-76
2023/12/15 03:30:29;;;;;;;823.33;764.87;;;4.30;99.90;;;;;;5010791;28;20418;-76
2023/12/15 03:32:55;;;;;;;763.97;713.73;;;4.20;99.90;;;;;;5004545;28;20477;-75
2023/12/15 03:35:20;;;;;;;746.27;698.83;;;4.20;99.90;;;;;;5008965;28;20053;-75
2023/12/15 03:37:46;;;;;;;740.40;693.13;;;4.20;99.90;;;;;;4993869;28;20494;-75
2023/12/15 03:40:12;;;;;;;752.40;704.63;;;4.30;99.90;;;;;;5007788;28;20029;-75
2023/12/15 03:42:38;;;;;;;772.37;721.27;;;4.30;99.90;;;;;;4994656;28;20482;-75
2023/12/15 03:45:04;;;;;;;687.38;645.78;;;4.30;99.90;;;;;;5009183;28;20393;-76
2023/12/15 03:47:31;;;;;;;799.97;745.10;;;4.40;99.90;;;;;;4994075;28;20502;-76
2023/12/15 03:49:56;;;;;;;767.58;717.00;;;4.30;99.90;;;;;;4993562;28;20100;-76
2023/12/15 03:52:22;;;;;;;783.60;731.37;;;4.30;99.90;;;;;;5009788;28;20042;-75
2023/12/15 03:54:48;;;;;;;764.47;715.90;;;4.30;99.90;;;;;;5008350;28;20073;-75
2023/12/15 03:57:14;;;;;;;743.07;696.27;;;4.40;99.90;;;;;;5011460;28;20042;-75
2023/12/15 03:59:39;;;;;;;761.33;712.70;;;4.40;99.90;;;;;;5010049;28;20041;-74
2023/12/15 04:02:05;;;;;;;818.77;763.73;;;4.40;99.90;;;;;;5009230;28;20034;-76
2023/12/15 04:04:34;;;;;;;801.58;749.28;;;4.40;99.90;;;;;;5009546;28;20092;-77
2023/12/15 04:07:00;;;;;;;842.65;784.95;;;4.40;99.90;;;;;;5009502;28;20037;-76
2023/12/15 04:09:26;;;;;;;805.13;752.53;;;4.30;99.90;;;;;;5005948;28;20038;-77
2023/12/15 04:11:51;;;;;;;729.33;683.57;;;4.30;99.90;;;;;;5007987;28;20063;-76
2023/12/15 04:14:18;;;;;;;804.87;752.73;;;4.20;99.90;;;;;;4987333;28;20109;-75
2023/12/15 04:16:43;;;;;;;792.25;740.90;;;4.20;99.90;;;;;;5009365;28;20042;-75
2023/12/15 04:19:09;;;;;;;823.80;768.17;;;4.10;99.90;;;;;;5010259;28;20034;-75
2023/12/15 04:21:35;;;;;;;840.10;782.13;;;4.10;99.90;;;;;;5005630;28;20049;-75
2023/12/15 04:24:01;;;;;;;759.20;710.77;;;4.10;99.90;;;;;;5010101;28;20108;-75
2023/12/15 04:26:26;;;;;;;738.73;693.37;;;4.10;99.90;;;;;;4992965;28;20042;-75
2023/12/15 04:28:53;;;;;;;727.77;682.83;;;4.10;99.90;;;;;;4993313;28;20034;-75
2023/12/15 04:31:19;;;;;;;703.55;659.88;;;4.10;99.90;;;;;;5011501;28;20128;-76
2023/12/15 04:33:44;;;;;;;673.55;632.05;;;4.00;99.90;;;;;;5026236;28;20116;-74
2023/12/15 04:36:11;;;;;;;659.10;619.47;;;4.00;99.90;;;;;;4991746;28;20572;-74
2023/12/15 04:38:37;;;;;;;684.97;638.55;;;4.00;99.90;;;;;;5006714;28;20363;-74
2023/12/15 04:41:03;;;;;;;649.85;611.97;;;3.90;99.90;;;;;;4993771;28;20034;-75
2023/12/15 04:43:29;;;;;;;679.90;638.30;;;4.00;99.90;;;;;;4993938;28;20042;-76
2023/12/15 04:45:56;;;;;;;637.97;599.67;;;3.90;99.90;;;;;;4989372;28;20043;-75
2023/12/15 04:48:22;;;;;;;747.63;701.00;;;3.90;99.90;;;;;;5007262;28;20484;-75
2023/12/15 04:50:49;;;;;;;727.63;680.80;;;3.90;99.90;;;;;;4991308;28;20053;-75
2023/12/15 04:53:15;;;;;;;705.10;661.05;;;3.90;99.90;;;;;;5008823;28;20044;-75
2023/12/15 04:55:40;;;;;;;713.20;668.63;;;3.80;99.90;;;;;;5006493;28;20030;-75
2023/12/15 04:58:07;;;;;;;738.00;691.87;;;3.80;99.90;;;;;;4993249;28;20467;-75
2023/12/15 05:00:32;;;;;;;801.33;748.58;;;3.80;99.90;;;;;;4989712;28;20097;-76
2023/12/15 05:02:59;;;;;;;785.60;734.93;;;3.80;99.90;;;;;;4992961;28;20050;-76
2023/12/15 05:05:25;;;;;;;856.80;795.17;;;3.80;99.90;;;;;;4995281;28;20061;-75
2023/12/15 05:07:51;;;;;;;761.17;712.00;;;3.70;99.90;;;;;;5007668;28;20502;-76
2023/12/15 05:10:16;;;;;;;771.53;721.50;;;3.70;99.90;;;;;;4991773;28;20091;-76
2023/12/15 05:12:42;;;;;;;712.47;668.87;;;3.70;99.90;;;;;;5008116;28;20035;-75
2023/12/15 05:15:08;;;;;;;739.27;694.83;;;3.70;99.90;;;;;;4993143;28;20596;-75
2023/12/15 05:17:34;;;;;;;642.33;604.90;;;3.70;99.90;;;;;;5008360;28;20042;-76
2023/12/15 05:20:02;;;;;;;669.03;627.13;;;3.60;99.90;;;;;;5009017;28;20304;-76
2023/12/15 05:22:28;;;;;;;731.47;685.30;;;3.60;99.90;;;;;;4993966;28;20505;-75
2023/12/15 05:24:53;;;;;;;733.83;687.85;;;3.60;99.90;;;;;;4996193;28;20050;-76
2023/12/15 05:27:19;;;;;;;723.87;679.33;;;3.60;99.90;;;;;;4996122;28;20065;-76
2023/12/15 05:29:46;;;;;;;720.33;676.07;;;3.70;99.90;;;;;;5012394;28;20144;-75
2023/12/15 05:32:12;;;;;;;720.05;674.22;;;3.70;99.90;;;;;;5011807;28;20119;-76
2023/12/15 05:34:38;;;;;;;667.08;625.72;;;3.60;99.90;;;;;;5012838;28;20045;-75
2023/12/15 05:37:05;;;;;;;693.13;651.05;;;3.70;99.90;;;;;;5010262;28;20046;-76
2023/12/15 05:39:31;;;;;;;747.57;700.37;;;3.70;99.90;;;;;;4997216;28;20088;-76
2023/12/15 05:41:57;;;;;;;725.00;679.53;;;3.80;99.90;;;;;;5021806;28;20072;-76
2023/12/15 05:44:23;;;;;;;686.90;646.43;;;3.80;99.90;;;;;;5010576;28;20495;-76
2023/12/15 05:46:49;;;;;;;692.80;650.33;;;3.80;99.90;;;;;;5007799;28;20049;-76
2023/12/15 05:49:15;;;;;;;813.38;758.65;;;3.80;99.90;;;;;;5008962;28;20375;-76
2023/12/15 05:51:47;;;;;;;686.97;646.97;;;3.90;99.90;;;;;;5011824;28;20048;-75
2023/12/15 05:54:12;;;;;;;731.90;685.78;;;3.90;99.90;;;;;;4996091;28;20402;-76
2023/12/15 05:56:39;;;;;;;735.03;688.17;;;3.90;99.90;;;;;;5009959;28;20050;-76
2023/12/15 05:59:04;;;;;;;734.70;689.55;;;3.90;99.90;;;;;;4984882;28;20049;-76
2023/12/15 06:01:30;;;;;;;735.33;690.20;;;3.90;99.90;;;;;;4985263;28;20042;-76
2023/12/15 06:03:56;;;;;;;694.60;652.20;;;3.90;99.90;;;;;;5011805;28;20083;-76
2023/12/15 06:06:22;;;;;;;692.87;650.37;;;3.90;99.90;;;;;;5011727;28;20559;-76
2023/12/15 06:08:48;;;;;;;666.10;626.83;;;3.90;99.90;;;;;;5005760;28;20037;-75
2023/12/15 06:11:14;;;;;;;668.65;627.88;;;3.90;99.90;;;;;;5008462;28;20038;-76
2023/12/15 06:13:41;;;;;;;654.40;615.07;;;3.80;99.90;;;;;;5010579;28;20053;-76
2023/12/15 06:16:07;;;;;;;658.30;620.28;;;3.80;99.90;;;;;;5007360;28;20116;-76
2023/12/15 06:18:33;;;;;;;682.47;643.15;;;3.80;99.90;;;;;;5008918;28;20404;-76
2023/12/15 06:20:59;;;;;;;685.13;644.77;;;3.70;99.90;;;;;;5009274;28;20034;-76
2023/12/15 06:23:25;;;;;;;673.20;632.03;;;3.70;99.90;;;;;;5009890;28;20050;-76
2023/12/15 06:25:50;;;;;;;667.57;628.83;;;3.70;99.90;;;;;;4991741;28;20498;-76
2023/12/15 06:28:16;;;;;;;662.47;622.87;;;3.60;99.90;;;;;;5010657;28;20034;-76
2023/12/15 06:30:42;;;;;;;640.60;602.90;;;3.60;99.90;;;;;;5008977;28;20133;-74
2023/12/15 06:33:08;;;;;;;642.57;605.13;;;3.60;99.90;;;;;;5007838;28;20061;-75
2023/12/15 06:35:33;;;;;;;627.60;591.17;;;3.60;99.90;;;;;;5006992;28;20037;-75
2023/12/15 06:38:00;;;;;;;645.70;607.80;;;3.60;99.90;;;;;;4992244;28;20044;-75
2023/12/15 06:40:25;;;;;;;690.13;648.45;;;3.60;99.90;;;;;;4994313;28;20033;-75
2023/12/15 06:42:51;;;;;;;646.33;608.30;;;3.60;99.90;;;;;;5008680;28;20034;-75
2023/12/15 06:45:17;;;;;;;659.83;620.80;;;3.60;99.90;;;;;;5008666;28;20088;-75
2023/12/15 06:47:43;;;;;;;619.37;583.90;;;3.50;99.90;;;;;;5007382;28;20037;-75
2023/12/15 06:50:09;;;;;;;610.43;574.77;;;3.50;99.90;;;;;;4994217;28;20041;-75
2023/12/15 06:52:35;;;;;;;627.00;589.85;;;3.50;99.90;;;;;;4993250;28;20096;-75
2023/12/15 06:55:05;;;;;;;641.95;603.55;;;3.50;99.90;;;;;;4999632;28;20110;-75
2023/12/15 06:57:31;;;;;;;600.60;565.38;;;3.50;99.90;;;;;;5008676;28;20130;-75
2023/12/15 06:59:56;;;;;;;602.47;567.47;;;3.40;99.90;;;;;;5008907;28;20122;-75
2023/12/15 07:02:22;;;;;;;554.43;522.87;;;3.40;99.90;;;;;;5010998;28;20096;-76
2023/12/15 07:04:48;;;;;;;615.87;580.30;;;3.40;99.90;;;;;;5009165;28;20038;-76
2023/12/15 07:07:13;;;;;;;631.33;594.63;;;3.40;99.90;;;;;;4988644;28;20487;-75
2023/12/15 07:09:39;;;;;;;617.03;581.43;;;3.50;99.90;;;;;;4990152;28;20120;-75
2023/12/15 07:12:06;;;;;;;638.77;601.33;;;3.50;99.90;;;;;;5009508;28;20034;-75
2023/12/15 07:14:32;;;;;;;614.70;578.83;;;3.50;99.90;;;;;;4993312;28;20438;-74
2023/12/15 07:16:58;;;;;;;616.80;581.00;;;3.50;99.90;;;;;;4991620;28;20030;-75
2023/12/15 07:19:23;;;;;;;629.73;592.20;;;3.50;99.90;;;;;;5005484;28;20038;-75
2023/12/15 07:21:49;;;;;;;637.13;598.40;;;3.40;99.90;;;;;;5006541;28;20398;-75
2023/12/15 07:24:15;;;;;;;648.03;609.70;;;3.40;99.90;;;;;;4991648;28;20054;-75
2023/12/15 07:26:40;;;;;;;656.00;616.70;;;3.40;99.90;;;;;;5007874;28;20050;-75
2023/12/15 07:29:06;;;;;;;617.97;580.93;;;3.30;99.90;;;;;;4994711;28;20038;-75
2023/12/15 07:31:32;;;;;;;695.43;652.23;;;3.30;99.90;;;;;;4995073;28;20068;-75
2023/12/15 07:33:58;;;;;;;610.33;574.60;;;3.30;99.90;;;;;;5008632;28;20045;-75
2023/12/15 07:36:23;;;;;;;605.57;571.00;;;3.30;99.90;;;;;;5010562;28;20045;-75
2023/12/15 07:38:49;;;;;;;618.50;583.10;;;3.30;99.90;;;;;;5010297;28;20485;-75
2023/12/15 07:41:15;;;;;;;644.27;605.17;;;3.30;99.90;;;;;;5009826;28;20129;-75
2023/12/15 07:43:40;;;;;;;624.90;588.23;;;3.30;99.90;;;;;;4996712;28;20042;-76
2023/12/15 07:46:17;;;;;;;647.27;608.30;;;3.40;99.90;;;;;;5011452;28;20465;-76
2023/12/15 07:48:42;;;;;;;639.03;600.83;;;3.40;99.90;;;;;;5009214;28;20521;-76
2023/12/15 07:51:19;;;;;;;670.13;629.50;;;3.50;99.90;;;;;;4993300;28;20037;-76
2023/12/15 07:53:47;;;;;;;663.20;623.85;;;3.50;99.90;;;;;;5009613;28;20034;-76
2023/12/15 07:56:39;;;;;;;618.92;582.83;;;3.60;99.90;;;;;;5008097;28;20042;-76
2023/12/15 07:59:05;;;;;;;634.00;597.50;;;3.70;99.90;;;;;;4991197;28;20049;-76
2023/12/15 08:01:30;;;;;;;664.50;624.17;;;3.80;99.90;;;;;;5009590;28;20096;-76
2023/12/15 08:03:56;;;;;;;669.73;629.73;;;3.80;99.90;;;;;;4991845;28;20129;-76
2023/12/15 08:06:22;;;;;;;698.30;656.47;;;3.90;99.90;;;;;;5008985;28;20041;-76
2023/12/15 08:08:48;;;;;;;656.30;616.17;;;4.00;99.90;;;;;;4991777;28;20108;-76
2023/12/15 08:11:14;;;;;;;694.95;652.60;;;4.10;99.90;;;;;;5008368;28;20041;-76
2023/12/15 08:13:41;;;;;;;713.65;668.88;;;4.10;99.90;;;;;;4990153;28;20052;-75
2023/12/15 08:16:08;;;;;;;701.15;658.05;;;4.10;99.90;;;;;;4985498;28;20084;-75
2023/12/15 08:18:34;;;;;;;664.92;624.80;;;4.20;99.90;;;;;;5008785;28;20037;-76
2023/12/15 08:21:00;;;;;;;719.00;673.90;;;4.30;99.90;;;;;;4990970;28;20045;-75
2023/12/15 08:23:26;;;;;;;701.65;657.95;;;4.30;99.90;;;;;;5001479;28;20099;-75
2023/12/15 08:25:53;;;;;;;814.85;761.50;;;4.30;99.90;;;;;;4992575;28;20033;-76
2023/12/15 08:28:20;;;;;;;761.92;713.22;;;4.40;99.90;;;;;;5010932;28;20491;-76
2023/12/15 08:30:47;;;;;;;775.92;725.95;;;4.40;99.90;;;;;;4989973;28;20045;-76
2023/12/15 08:33:12;;;;;;;781.83;731.25;;;4.50;99.90;;;;;;5006405;28;20123;-75
2023/12/15 08:35:38;;;;;;;793.63;740.87;;;4.50;99.90;;;;;;5009247;28;20042;-75
2023/12/15 08:38:05;;;;;;;758.37;708.57;;;4.50;99.90;;;;;;4990630;28;20045;-75
2023/12/15 08:40:30;;;;;;;804.83;751.05;;;4.60;99.90;;;;;;4991687;28;20038;-75
2023/12/15 08:42:56;;;;;;;812.43;759.90;;;4.60;99.90;;;;;;5005570;28;20049;-75
2023/12/15 08:45:22;;;;;;;800.20;746.07;;;4.70;99.90;;;;;;4990418;28;20120;-76
2023/12/15 08:47:48;;;;;;;776.43;726.03;;;4.70;99.90;;;;;;5009006;28;20046;-76
2023/12/15 08:50:14;;;;;;;794.30;742.87;;;4.70;99.90;;;;;;5007395;28;20053;-76
2023/12/15 08:52:40;;;;;;;808.97;755.88;;;4.80;99.90;;;;;;4989412;28;20498;-76
2023/12/15 08:55:06;;;;;;;776.33;726.67;;;4.80;99.90;;;;;;4990742;28;20037;-76
2023/12/15 08:57:32;;;;;;;823.83;768.60;;;4.90;99.90;;;;;;4991840;28;20042;-76
2023/12/15 08:59:59;;;;;;;810.22;755.80;;;5.00;99.90;;;;;;5004704;28;20034;-75
2023/12/15 09:02:25;;;;;;;768.35;718.72;;;5.00;99.90;;;;;;5006404;28;20042;-75
2023/12/15 09:04:52;;;;;;;814.20;759.05;;;5.10;99.90;;;;;;5008108;28;20038;-75
2023/12/15 09:07:18;;;;;;;809.63;754.83;;;5.10;99.90;;;;;;4994268;28;20044;-75
2023/12/15 09:09:44;;;;;;;831.58;776.28;;;5.20;99.90;;;;;;5007464;28;20569;-75
2023/12/15 09:12:10;;;;;;;807.33;755.73;;;5.30;99.90;;;;;;5008632;28;20034;-76
2023/12/15 09:14:37;;;;;;;856.33;797.10;;;5.40;99.90;;;;;;4995343;28;20037;-76
2023/12/15 09:17:03;;;;;;;830.47;772.92;;;5.40;99.90;;;;;;4994626;28;20051;-76
2023/12/15 09:19:30;;;;;;;869.08;807.72;;;5.50;99.90;;;;;;4996520;28;20030;-75
2023/12/15 09:21:56;;;;;;;929.78;859.22;;;5.60;99.90;;;;;;4996907;28;20439;-75
2023/12/15 09:24:22;;;;;;;828.80;771.90;;;5.70;99.90;;;;;;5012753;28;20084;-76
2023/12/15 09:26:48;;;;;;;888.20;824.63;;;5.70;99.90;;;;;;5012831;28;20070;-76
2023/12/15 09:29:14;;;;;;;921.60;853.45;;;5.80;99.90;;;;;;4996445;28;20092;-76
2023/12/15 09:31:41;;;;;;;956.60;879.83;;;5.90;99.90;;;;;;5012586;28;20084;-76
2023/12/15 09:34:07;;;;;;;929.53;856.33;;;6.00;99.90;;;;;;4996827;28;20502;-77
2023/12/15 09:36:34;;;;;;;860.60;799.30;;;6.10;99.90;;;;;;5012777;28;20046;-76
2023/12/15 09:39:00;;;;;;;910.38;843.92;;;6.10;99.90;;;;;;4991957;28;20076;-76
2023/12/15 09:41:28;;;;;;;912.30;844.83;;;6.20;99.90;;;;;;5012418;28;20034;-76
2023/12/15 09:43:54;;;;;;;918.40;848.90;;;6.20;99.90;;;;;;5012506;28;20481;-76
2023/12/15 09:46:21;;;;;;;911.70;846.45;;;6.30;99.90;;;;;;4986733;28;20084;-76
2023/12/15 09:48:48;;;;;;;898.20;834.88;;;6.40;99.90;;;;;;4996483;28;20045;-75
2023/12/15 09:51:28;;;;;;;924.22;858.13;;;6.40;99.90;;;;;;5011572;28;20049;-75
2023/12/15 09:53:53;;;;;;;900.65;833.60;;;6.50;99.90;;;;;;4995914;28;20045;-76
2023/12/15 09:56:19;;;;;;;888.77;824.63;;;6.50;99.90;;;;;;5013023;28;20524;-76
2023/12/15 09:58:45;;;;;;;906.50;839.83;;;6.60;99.90;;;;;;5012334;28;20509;-77
2023/12/15 10:01:12;;;;;;;933.10;865.07;;;6.60;99.90;;;;;;4996427;28;20037;-76
2023/12/15 10:03:38;;;;;;;933.80;866.63;;;6.70;99.90;;;;;;5014602;28;20056;-75
2023/12/15 10:06:05;;;;;;;929.92;860.17;;;6.70;99.90;;;;;;4992255;28;20042;-75
2023/12/15 10:08:49;;;;;;;938.03;868.88;;;6.80;99.90;;;;;;5012423;28;20133;-75
2023/12/15 10:11:16;;;;;;;942.60;871.72;;;6.80;99.90;;;;;;4996294;28;20528;-75
2023/12/15 10:13:42;;;;;;;913.72;845.70;;;6.90;99.90;;;;;;5012186;28;20504;-75
2023/12/15 10:16:12;;;;;;;948.13;877.87;;;6.90;99.90;;;;;;5012313;28;20034;-76
2023/12/15 10:18:38;;;;;;;954.85;881.58;;;7.00;99.90;;;;;;4993461;28;20049;-76
2023/12/15 10:21:05;;;;;;;1999.90;999.90;;;7.00;99.90;;;;;;5011541;28;20045;-75
2023/12/15 10:23:32;;;;;;;971.17;894.72;;;7.10;99.90;;;;;;5007021;28;20038;-75
2023/12/15 10:26:05;;;;;;;921.28;852.13;;;7.10;99.90;;;;;;5028176;28;20046;-75
2023/12/15 10:28:36;;;;;;;939.47;868.53;;;7.10;99.90;;;;;;4988952;28;20061;-76
2023/12/15 10:31:02;;;;;;;1003.42;920.55;;;7.20;99.90;;;;;;5012190;28;20042;-76
2023/12/15 10:33:29;;;;;;;927.22;856.85;;;7.20;99.90;;;;;;5011181;28;20050;-76
2023/12/15 10:35:57;;;;;;;950.25;879.53;;;7.20;99.90;;;;;;5011608;28;20532;-76
2023/12/15 10:38:23;;;;;;;996.05;917.25;;;7.30;99.90;;;;;;5008407;28;20461;-76
2023/12/15 10:40:49;;;;;;;992.53;913.00;;;7.30;99.90;;;;;;5012006;28;20050;-75
2023/12/15 10:43:16;;;;;;;960.63;885.43;;;7.30;99.90;;;;;;5013838;28;20077;-75
2023/12/15 10:45:44;;;;;;;962.78;889.25;;;7.40;99.90;;;;;;5007933;28;20437;-75
2023/12/15 10:48:12;;;;;;;953.78;882.60;;;7.40;99.90;;;;;;5011820;28;20479;-75
2023/12/15 10:50:42;;;;;;;981.15;902.28;;;7.50;99.90;;;;;;5011377;28;20048;-75
2023/12/15 10:53:09;;;;;;;991.67;901.90;;;7.60;99.90;;;;;;4995714;28;20402;-75
2023/12/15 10:55:38;;;;;;;999.63;917.53;;;7.60;99.90;;;;;;4994167;28;20030;-74
2023/12/15 10:58:06;;;;;;;944.45;874.13;;;7.70;99.90;;;;;;5006545;28;20457;-76
2023/12/15 11:00:32;;;;;;;966.67;890.83;;;7.70;99.90;;;;;;4994955;28;20108;-75
2023/12/15 11:02:59;;;;;;;1026.30;940.63;;;7.80;99.90;;;;;;5011282;28;20046;-76
2023/12/15 11:05:26;;;;;;;1011.97;929.03;;;7.80;99.90;;;;;;5010780;28;20133;-76
2023/12/15 11:07:53;;;;;;;1002.28;921.25;;;7.90;99.90;;;;;;5012438;28;20107;-75
2023/12/15 11:10:18;;;;;;;967.10;893.78;;;7.90;99.90;;;;;;5011129;28;20132;-76
2023/12/15 11:12:44;;;;;;;1076.33;979.00;;;7.90;99.90;;;;;;5010576;28;20613;-76
2023/12/15 11:15:12;;;;;;;1034.30;947.13;;;7.90;99.90;;;;;;4987352;28;20038;-76
2023/12/15 11:17:45;;;;;;;1049.67;958.53;;;8.00;99.90;;;;;;5012619;28;20038;-76
2023/12/15 11:20:20;;;;;;;1029.57;941.95;;;7.90;99.90;;;;;;5010680;28;20838;-76
2023/12/15 11:23:07;;;;;;;987.33;907.35;;;7.90;99.90;;;;;;5010984;28;20056;-76
2023/12/15 11:25:51;;;;;;;997.72;917.35;;;7.80;99.90;;;;;;5007283;28;20052;-76
2023/12/15 11:28:17;;;;;;;960.43;885.83;;;7.70;99.90;;;;;;5010432;28;20529;-75
2023/12/15 11:30:45;;;;;;;976.95;899.80;;;7.70;99.90;;;;;;4994223;28;20289;-75
2023/12/15 11:33:26;;;;;;;946.03;875.13;;;7.60;99.90;;;;;;4995307;28;20061;-76
2023/12/15 11:35:53;;;;;;;991.70;913.57;;;7.60;99.90;;;;;;5007993;28;20640;-76
2023/12/15 11:38:22;;;;;;;989.28;909.75;;;7.50;99.90;;;;;;5010529;28;20288;-76
2023/12/15 11:40:48;;;;;;;977.35;898.42;;;7.50;99.90;;;;;;5008605;28;20383;-76
2023/12/15 11:43:14;;;;;;;967.70;891.33;;;7.60;99.90;;;;;;4994191;28;20061;-77
2023/12/15 11:45:41;;;;;;;954.07;881.17;;;7.60;99.90;;;;;;5006599;28;20057;-76
2023/12/15 11:48:09;;;;;;;997.22;914.67;;;7.70;99.90;;;;;;5010829;28;20514;-76
2023/12/15 11:50:35;;;;;;;1014.27;931.00;;;7.80;99.90;;;;;;5010356;28;20060;-76
2023/12/15 11:53:08;;;;;;;1016.67;931.23;;;7.90;99.90;;;;;;5010160;28;20304;-75
2023/12/15 11:55:34;;;;;;;1008.33;924.53;;;8.00;99.90;;;;;;5009989;28;20285;-76
2023/12/15 11:58:00;;;;;;;1050.87;960.27;;;8.10;99.90;;;;;;4993976;28;20372;-76
2023/12/15 12:00:26;;;;;;;1020.43;936.00;;;8.20;99.90;;;;;;5010178;28;20364;-76
2023/12/15 12:02:52;;;;;;;1005.23;921.57;;;8.30;99.90;;;;;;5010349;28;20092;-76
2023/12/15 12:05:18;;;;;;;995.13;911.33;;;8.30;99.90;;;;;;4994010;28;20777;-76
2023/12/15 12:07:44;;;;;;;1014.80;928.53;;;8.30;99.90;;;;;;4994163;28;20339;-76
2023/12/15 12:10:10;;;;;;;1036.50;941.30;;;8.30;99.90;;;;;;5010214;28;20045;-76
2023/12/15 12:12:37;;;;;;;1004.80;921.53;;;8.30;99.90;;;;;;5009227;28;20363;-75